Saipan, MP

8:18 AM ChST on September 30, 2016 (GMT +1000)
Red Cross-Airport | | Change Station

Elev 215 ft 15.13 °N, 145.72 °E | Updated 17 minutes ago

Rain
Rain
81.6 °F
Feels Like 90 °F
N
2.0
Wind Variable Wind from SSE
Gusts 7.0 mph

Today
High -- | Low -- °F
--% Chance of Precip.
Yesterday
High -- | Low -- °F
Precip. -- in
Pressure 29.86 in
Visibility 10.0 miles
Clouds Mostly Cloudy 11000 ft
Heat Index 90 °F
Dew Point 78 °F
Humidity 88%
Rainfall Not available.
Snow Depth Not available.
6:06 AM 6:07 PM
Waning Crescent, 1% visible
METAR PGSN 292154Z 20003KT 10SM BKN110 29/26 A2980 RMK AO2 RAB19E36 SLP111 P0004 T02890256
Pressure 29.86 in
Visibility 10.0 miles
Clouds Mostly Cloudy 11000 ft
Heat Index 90 °F
Dew Point 78 °F
Humidity 88%
Rainfall Not available.
Snow Depth Not available.
6:06 AM 6:07 PM
Waning Crescent, 1% visible
METAR PGSN 292154Z 20003KT 10SM BKN110 29/26 A2980 RMK AO2 RAB19E36 SLP111 P0004 T02890256

10-Day Weather Forecast

Almanac

Astronomy

Sep. 30, 2016 Rise Set
Actual Time
Civil Twilight
Nautical Twilight
Astronomical Twilight
Moon
Length of Visible Light
Length of Day
Tomorrow will be .
, % of the Moon is Illuminated

Today's Extremes

State Highs State Lows

Community

WunderPhotos

Upload Photos

1,942,587 photos uploaded!

WunderBlog® & News

Nearby

Air Quality

  Air Quality AQ Index Pollutant
Not available.

Snow Depth

Station Depth Elevation

Earthquake Activity

City Distance Mag. Time & Date
Minimum magnitude displayed is 2.5.

Coastal Water Temperatures

Place Temperature

Stations

Nearby Weather Stations

Station Location Temp. Windchill Dew Point Humidity Wind Precip. Elev Updated Type
                   

Watches & Warnings

There are currently no watches in effect.